createdAt,value
2019-02-02T00:01:32.478Z,96304.64
2019-02-02T00:04:47.729Z,96302.53
2019-02-02T00:08:03.244Z,96308.30
2019-02-02T00:11:18.434Z,96304.58
2019-02-02T00:14:33.746Z,96289.95
2019-02-02T00:17:49.103Z,96275.05
2019-02-02T00:21:04.939Z,96276.09
2019-02-02T00:24:20.433Z,96282.45
2019-02-02T00:27:41.565Z,96272.25
2019-02-02T00:30:54.466Z,96285.09
2019-02-02T00:34:09.684Z,96294.70
2019-02-02T00:37:25.037Z,96296.95
2019-02-02T00:40:40.425Z,96299.48
2019-02-02T00:43:55.631Z,96288.61
2019-02-02T00:47:10.813Z,96298.92
2019-02-02T00:50:26.811Z,96315.47
2019-02-02T00:53:42.065Z,96301.68
2019-02-02T00:56:57.511Z,96301.62
2019-02-02T01:00:13.028Z,96298.90
2019-02-02T01:03:28.138Z,96302.53
2019-02-02T01:06:43.595Z,96309.33
2019-02-02T01:09:59.267Z,96319.45
2019-02-02T01:13:15.282Z,96328.20
2019-02-02T01:16:30.467Z,96329.47
2019-02-02T01:19:45.577Z,96331.41
2019-02-02T01:23:00.959Z,96327.92
2019-02-02T01:26:16.311Z,96336.30
2019-02-02T01:29:31.664Z,96343.83
2019-02-02T01:32:47.378Z,96340.51
2019-02-02T01:36:02.941Z,96350.47
2019-02-02T01:39:18.341Z,96355.56
2019-02-02T01:42:33.715Z,96359.28
2019-02-02T01:45:48.976Z,96349.13
2019-02-02T01:49:04.434Z,96352.75
2019-02-02T01:52:19.748Z,96342.74
2019-02-02T01:55:35.123Z,96342.15
2019-02-02T01:58:50.607Z,96339.34
2019-02-02T02:02:05.967Z,96331.12
2019-02-02T02:05:21.698Z,96332.75
2019-02-02T02:08:37.169Z,96334.25
2019-02-02T02:11:52.467Z,96339.70
2019-02-02T02:15:07.863Z,96354.80
2019-02-02T02:18:23.748Z,96362.20
2019-02-02T02:21:39.247Z,96364.73
2019-02-02T02:24:54.511Z,96359.88
2019-02-02T02:28:09.629Z,96364.27
2019-02-02T02:31:24.695Z,96360.95
2019-02-02T02:34:39.954Z,96356.04
2019-02-02T02:37:55.095Z,96351.45
2019-02-02T02:41:10.513Z,96352.69
2019-02-02T02:44:26.504Z,96347.23
2019-02-02T02:47:41.807Z,96335.59
2019-02-02T02:50:57.289Z,96338.16
2019-02-02T02:54:12.515Z,96345.00
2019-02-02T02:57:27.696Z,96332.53
2019-02-02T03:00:43.216Z,96322.88
2019-02-02T03:03:58.524Z,96316.17
2019-02-02T03:07:13.649Z,96321.42
2019-02-02T03:10:28.866Z,96335.34
2019-02-02T03:13:44.220Z,96317.41
2019-02-02T03:16:59.483Z,96314.76
2019-02-02T03:20:15.217Z,96323.53
2019-02-02T03:23:30.382Z,96324.12
2019-02-02T03:26:45.627Z,96332.34
2019-02-02T03:30:00.917Z,96322.69
2019-02-02T03:33:16.141Z,96322.30
2019-02-02T03:36:31.363Z,96326.77
2019-02-02T03:39:46.626Z,96341.76
2019-02-02T03:43:01.999Z,96341.76
2019-02-02T03:46:17.196Z,96348.98
2019-02-02T03:49:32.517Z,96347.22
2019-02-02T03:52:47.322Z,96357.23
2019-02-02T03:56:02.477Z,96362.88
2019-02-02T03:59:17.708Z,96353.28
2019-02-02T04:02:32.779Z,96359.33
2019-02-02T04:05:48.111Z,96355.26
2019-02-02T04:09:03.405Z,96357.03
2019-02-02T04:12:18.772Z,96355.69
2019-02-02T04:15:34.290Z,96362.17
2019-02-02T04:18:49.652Z,96362.41
2019-02-02T04:22:05.124Z,96359.92
2019-02-02T04:25:21.439Z,96370.86
2019-02-02T04:28:37.103Z,96377.67
2019-02-02T04:31:52.816Z,96374.58
2019-02-02T04:35:08.876Z,96377.90
2019-02-02T04:38:24.157Z,96384.82
2019-02-02T04:41:39.323Z,96380.83
2019-02-02T04:44:54.768Z,96370.31
2019-02-02T04:48:10.192Z,96368.81
2019-02-02T04:51:25.431Z,96367.27
2019-02-02T04:54:40.785Z,96364.94
2019-02-02T04:57:55.921Z,96370.98
2019-02-02T05:01:11.467Z,96375.17
2019-02-02T05:04:26.749Z,96371.97
2019-02-02T05:07:42.180Z,96367.97
2019-02-02T05:10:57.299Z,96375.06
2019-02-02T05:14:12.591Z,96380.52
2019-02-02T05:17:28.516Z,96392.78
2019-02-02T05:20:43.889Z,96402.27
2019-02-02T05:23:59.376Z,96404.40
2019-02-02T05:27:14.736Z,96400.60
2019-02-02T05:30:29.785Z,96413.73
2019-02-02T05:33:45.138Z,96413.45
2019-02-02T05:37:00.413Z,96408.12
2019-02-02T05:40:15.477Z,96401.36
2019-02-02T05:43:32.116Z,96410.58
2019-02-02T05:46:47.412Z,96414.30
2019-02-02T05:50:02.604Z,96413.26
2019-02-02T05:53:17.860Z,96418.41
2019-02-02T05:56:33.131Z,96424.45
2019-02-02T05:59:52.954Z,96441.30
2019-02-02T06:03:05.603Z,96446.37
2019-02-02T06:06:20.721Z,96456.02
2019-02-02T06:09:35.834Z,96463.81
2019-02-02T06:12:51.076Z,96470.14
2019-02-02T06:16:06.693Z,96469.50
2019-02-02T06:19:22.197Z,96486.78
2019-02-02T06:22:37.454Z,96491.84
2019-02-02T06:25:52.884Z,96508.31
2019-02-02T06:29:08.213Z,96503.20
2019-02-02T06:32:23.599Z,96501.45
2019-02-02T06:35:38.867Z,96501.84
2019-02-02T06:38:54.066Z,96499.71
2019-02-02T06:42:09.196Z,96485.16
2019-02-02T06:45:26.690Z,96494.70
2019-02-02T06:48:41.935Z,96503.67
2019-02-02T06:51:57.957Z,96508.02
2019-02-02T06:55:13.073Z,96509.61
2019-02-02T06:58:28.579Z,96509.94
2019-02-02T07:01:43.866Z,96513.59
2019-02-02T07:04:59.151Z,96524.55
2019-02-02T07:08:14.756Z,96532.16
2019-02-02T07:11:30.064Z,96534.14
2019-02-02T07:14:45.237Z,96539.28
2019-02-02T07:18:00.651Z,96547.53
2019-02-02T07:21:16.166Z,96558.58
2019-02-02T07:24:31.317Z,96563.11
2019-02-02T07:27:46.540Z,96570.58
2019-02-02T07:31:01.678Z,96584.84
2019-02-02T07:34:17.137Z,96587.88
2019-02-02T07:37:32.920Z,96585.35
2019-02-02T07:40:48.334Z,96586.48
2019-02-02T07:44:03.851Z,96593.00
2019-02-02T07:47:19.062Z,96584.07
2019-02-02T07:50:34.692Z,96580.00
2019-02-02T07:53:49.852Z,96587.70
2019-02-02T07:57:05.305Z,96599.23
2019-02-02T08:00:39.600Z,96596.67
2019-02-02T08:03:45.608Z,96590.11
2019-02-02T08:07:00.721Z,96591.19
2019-02-02T08:10:16.148Z,96594.03
2019-02-02T08:13:31.348Z,96593.28
2019-02-02T08:16:46.483Z,96598.83
2019-02-02T08:20:01.988Z,96602.91
2019-02-02T08:23:17.844Z,96605.48
2019-02-02T08:26:33.392Z,96603.13
2019-02-02T08:29:48.933Z,96606.84
2019-02-02T08:33:04.784Z,96604.73
2019-02-02T08:36:20.088Z,96601.75
2019-02-02T08:39:35.440Z,96603.63
2019-02-02T08:42:50.640Z,96612.14
2019-02-02T08:46:06.263Z,96611.55
2019-02-02T08:49:21.644Z,96618.20
2019-02-02T08:52:36.854Z,96627.27
2019-02-02T08:55:52.361Z,96635.98
2019-02-02T08:59:07.764Z,96639.70
2019-02-02T09:02:22.890Z,96635.01
2019-02-02T09:05:38.182Z,96641.97
2019-02-02T09:08:53.471Z,96649.69
2019-02-02T09:12:08.917Z,96653.23
2019-02-02T09:15:24.422Z,96661.66
2019-02-02T09:18:39.738Z,96654.13
2019-02-02T09:21:55.036Z,96660.21
2019-02-02T09:25:11.820Z,96661.27
2019-02-02T09:28:27.201Z,96663.75
2019-02-02T09:31:42.168Z,96671.50
2019-02-02T09:34:57.687Z,96675.14
2019-02-02T09:38:12.937Z,96677.39
2019-02-02T09:41:29.824Z,96677.97
2019-02-02T09:44:45.261Z,96678.53
2019-02-02T09:48:00.515Z,96688.65
2019-02-02T09:51:15.912Z,96699.51
2019-02-02T09:54:32.005Z,96709.09
2019-02-02T09:57:47.509Z,96715.34
2019-02-02T10:01:02.991Z,96719.92
2019-02-02T10:08:32.690Z,96728.24
2019-02-02T10:11:48.338Z,96734.70
2019-02-02T10:15:06.396Z,96737.80
2019-02-02T10:18:22.068Z,96743.70
2019-02-02T10:21:38.461Z,96752.88
2019-02-02T10:24:54.025Z,96753.67
2019-02-02T10:28:09.433Z,96758.44
2019-02-02T10:31:24.951Z,96764.80
2019-02-02T10:34:41.072Z,96765.77
2019-02-02T10:37:56.632Z,96763.50
2019-02-02T10:41:11.751Z,96761.63
2019-02-02T10:44:27.240Z,96768.77
2019-02-02T10:47:43.012Z,96768.61
2019-02-02T10:50:58.549Z,96779.88
2019-02-02T10:54:14.031Z,96782.81
2019-02-02T10:57:30.332Z,96787.52
2019-02-02T11:00:45.903Z,96782.05
2019-02-02T11:04:01.261Z,96793.20
2019-02-02T11:07:17.002Z,96786.84
2019-02-02T11:10:32.846Z,96792.60
2019-02-02T11:13:48.221Z,96795.70
2019-02-02T11:17:03.397Z,96800.61
2019-02-02T11:20:19.721Z,96805.48
2019-02-02T11:23:35.167Z,96809.09
2019-02-02T11:26:50.593Z,96806.26
2019-02-02T11:30:05.806Z,96805.00
2019-02-02T11:33:21.179Z,96807.94
2019-02-02T11:36:36.495Z,96804.12
2019-02-02T11:39:51.738Z,96802.40
2019-02-02T11:43:07.002Z,96808.14
2019-02-02T11:46:22.444Z,96818.91
2019-02-02T11:49:38.053Z,96829.78
2019-02-02T11:52:53.295Z,96844.28
2019-02-02T11:56:08.898Z,96842.11
2019-02-02T11:59:24.147Z,96842.27
2019-02-02T12:02:49.138Z,96844.43
2019-02-02T12:05:56.799Z,96848.36
2019-02-02T12:09:12.008Z,96854.55
2019-02-02T12:12:27.254Z,96855.81
2019-02-02T12:15:42.498Z,96846.33
2019-02-02T12:18:58.099Z,96840.14
2019-02-02T12:22:13.696Z,96843.16
2019-02-02T12:25:29.252Z,96847.77
2019-02-02T12:28:44.452Z,96858.25
2019-02-02T12:31:59.860Z,96863.74
2019-02-02T12:35:17.991Z,96872.22
2019-02-02T12:38:33.558Z,96874.00
2019-02-02T12:41:48.981Z,96882.22
2019-02-02T12:45:05.158Z,96888.68
2019-02-02T12:48:20.592Z,96887.03
2019-02-02T12:51:35.728Z,96887.65
2019-02-02T12:54:50.911Z,96883.77
2019-02-02T12:58:05.922Z,96894.04
2019-02-02T13:01:21.429Z,96896.45
2019-02-02T13:04:36.731Z,96896.56
2019-02-02T13:07:52.878Z,96898.41
2019-02-02T13:11:08.435Z,96905.07
2019-02-02T13:14:23.775Z,96906.44
2019-02-02T13:17:39.636Z,96912.30
2019-02-02T13:20:55.032Z,96915.70
2019-02-02T13:24:10.283Z,96913.52
2019-02-02T13:27:25.807Z,96924.36
2019-02-02T13:30:41.297Z,96925.61
2019-02-02T13:33:56.911Z,96930.50
2019-02-02T13:37:13.003Z,96937.76
2019-02-02T13:40:28.336Z,96929.28
2019-02-02T13:43:44.407Z,96938.17
2019-02-02T13:46:59.963Z,96931.97
2019-02-02T13:50:16.077Z,96935.29
2019-02-02T13:53:31.456Z,96943.75
2019-02-02T13:56:49.685Z,96946.81
2019-02-02T14:00:03.650Z,96945.02
2019-02-02T14:03:18.839Z,96938.50
2019-02-02T14:06:34.471Z,96934.63
2019-02-02T14:09:50.368Z,96932.83
2019-02-02T14:13:05.651Z,96936.92
2019-02-02T14:16:22.107Z,96944.63
2019-02-02T14:19:37.600Z,96946.69
2019-02-02T14:22:57.227Z,96949.86
2019-02-02T14:26:13.027Z,96962.74
2019-02-02T14:29:28.339Z,96969.12
2019-02-02T14:32:43.759Z,96976.56
2019-02-02T14:36:01.742Z,96979.02
2019-02-02T14:39:16.082Z,96984.02
2019-02-02T14:42:31.537Z,96987.98
2019-02-02T14:45:46.699Z,96999.74
2019-02-02T14:49:01.845Z,97011.42
2019-02-02T14:52:17.481Z,97027.40
2019-02-02T14:55:33.028Z,97042.22
2019-02-02T14:58:49.192Z,97046.75
2019-02-02T15:02:04.881Z,97048.47
2019-02-02T15:05:21.354Z,97060.45
2019-02-02T15:08:37.336Z,97068.30
2019-02-02T15:11:52.872Z,97075.64
2019-02-02T15:15:08.136Z,97080.59
2019-02-02T15:18:23.631Z,97082.87
2019-02-02T15:21:39.056Z,97084.16
2019-02-02T15:24:54.480Z,97085.80
2019-02-02T15:28:10.395Z,97091.30
2019-02-02T15:31:26.230Z,97096.91
2019-02-02T15:34:41.320Z,97096.99
2019-02-02T15:37:56.688Z,97097.86
2019-02-02T15:41:11.953Z,97107.70
2019-02-02T15:44:26.387Z,97112.36
2019-02-02T15:47:41.941Z,97114.36
2019-02-02T15:50:57.326Z,97114.05
2019-02-02T15:54:12.543Z,97117.55
2019-02-02T15:57:27.950Z,97120.36
2019-02-02T16:00:43.379Z,97122.92
2019-02-02T16:03:58.879Z,97127.34
2019-02-02T16:07:13.948Z,97143.55
2019-02-02T16:10:30.085Z,97146.41
2019-02-02T16:13:45.423Z,97150.47
2019-02-02T16:17:03.195Z,97158.11
2019-02-02T16:20:20.583Z,97162.80
2019-02-02T16:23:35.871Z,97165.42
2019-02-02T16:26:51.057Z,97167.54
2019-02-02T16:30:07.700Z,97174.22
2019-02-02T16:33:23.281Z,97173.54
2019-02-02T16:36:38.643Z,97190.31
2019-02-02T16:39:53.867Z,97184.30
2019-02-02T16:43:09.457Z,97186.36
2019-02-02T16:46:24.710Z,97202.33
2019-02-02T16:49:40.176Z,97205.39
2019-02-02T16:52:55.532Z,97223.01
2019-02-02T16:56:10.967Z,97235.96
2019-02-02T16:59:26.383Z,97240.16
2019-02-02T17:02:42.645Z,97242.83
2019-02-02T17:05:57.968Z,97242.05
2019-02-02T17:09:14.143Z,97250.48
2019-02-02T17:12:29.513Z,97256.83
2019-02-02T17:15:45.731Z,97261.91
2019-02-02T17:19:01.200Z,97266.89
2019-02-02T17:22:16.595Z,97271.58
2019-02-02T17:25:31.828Z,97271.31
2019-02-02T17:28:47.018Z,97282.56
2019-02-02T17:32:02.211Z,97282.08
2019-02-02T17:35:17.686Z,97278.92
2019-02-02T17:38:33.008Z,97286.06
2019-02-02T17:41:48.203Z,97287.59
2019-02-02T17:45:03.397Z,97293.09
2019-02-02T17:48:19.121Z,97302.80
2019-02-02T17:51:34.252Z,97310.19
2019-02-02T17:54:49.714Z,97304.75
2019-02-02T17:58:05.066Z,97315.12
2019-02-02T18:01:20.299Z,97319.69
2019-02-02T18:04:39.943Z,97321.05
2019-02-02T18:07:52.947Z,97324.49
2019-02-02T18:11:08.299Z,97328.58
2019-02-02T18:14:23.516Z,97324.78
2019-02-02T18:17:38.897Z,97327.70
2019-02-02T18:20:54.706Z,97339.25
2019-02-02T18:24:09.863Z,97335.29
2019-02-02T18:27:25.290Z,97331.38
2019-02-02T18:30:40.720Z,97334.17
2019-02-02T18:33:56.683Z,97347.64
2019-02-02T18:37:12.712Z,97360.06
2019-02-02T18:40:29.700Z,97369.73
2019-02-02T18:43:45.707Z,97367.56
2019-02-02T18:47:00.974Z,97379.37
2019-02-02T18:50:16.483Z,97371.74
2019-02-02T18:53:31.672Z,97376.08
2019-02-02T18:56:46.972Z,97378.63
2019-02-02T19:00:02.151Z,97387.26
2019-02-02T19:03:17.955Z,97393.58
2019-02-02T19:06:34.184Z,97403.22
2019-02-02T19:09:49.588Z,97406.36
2019-02-02T19:13:05.269Z,97411.79
2019-02-02T19:16:21.225Z,97413.31
2019-02-02T19:19:36.413Z,97422.46
2019-02-02T19:22:52.739Z,97424.48
2019-02-02T19:26:08.106Z,97423.95
2019-02-02T19:29:23.444Z,97432.06
2019-02-02T19:32:39.792Z,97433.84
2019-02-02T19:35:55.027Z,97444.97
2019-02-02T19:39:10.638Z,97451.84
2019-02-02T19:42:25.881Z,97456.91
2019-02-02T19:45:41.870Z,97460.46
2019-02-02T19:48:57.264Z,97466.71
2019-02-02T19:52:12.499Z,97479.38
2019-02-02T19:55:27.883Z,97490.43
2019-02-02T19:58:43.219Z,97492.18
2019-02-02T20:01:59.090Z,97490.67
2019-02-02T20:05:14.271Z,97506.14
2019-02-02T20:08:29.740Z,97516.80
2019-02-02T20:11:44.927Z,97522.36
2019-02-02T20:15:00.462Z,97525.29
2019-02-02T20:18:15.762Z,97524.02
2019-02-02T20:21:30.933Z,97522.23
2019-02-02T20:24:47.004Z,97523.14
2019-02-02T20:28:02.355Z,97536.71
2019-02-02T20:31:18.175Z,97544.95
2019-02-02T20:34:33.324Z,97549.14
2019-02-02T20:37:48.795Z,97551.78
2019-02-02T20:41:03.956Z,97547.73
2019-02-02T20:44:19.122Z,97558.02
2019-02-02T20:47:35.498Z,97568.67
2019-02-02T20:50:50.853Z,97577.66
2019-02-02T20:54:06.399Z,97584.53
2019-02-02T20:57:21.644Z,97591.64
2019-02-02T21:00:36.581Z,97598.22
2019-02-02T21:03:52.403Z,97602.03
2019-02-02T21:07:07.633Z,97615.98
2019-02-02T21:10:22.844Z,97626.38
2019-02-02T21:13:38.278Z,97640.10
2019-02-02T21:16:53.553Z,97650.00
2019-02-02T21:20:12.105Z,97657.99
2019-02-02T21:23:27.570Z,97654.81
2019-02-02T21:26:43.496Z,97665.36
2019-02-02T21:29:59.157Z,97676.15
2019-02-02T21:33:14.245Z,97682.38
2019-02-02T21:36:29.489Z,97685.80
2019-02-02T21:39:44.795Z,97690.87
2019-02-02T21:43:00.551Z,97694.69
2019-02-02T21:46:16.011Z,97700.25
2019-02-02T21:49:31.348Z,97708.38
2019-02-02T21:52:46.827Z,97703.30
2019-02-02T21:56:01.969Z,97706.61
2019-02-02T21:59:17.552Z,97702.27
2019-02-02T22:02:33.014Z,97712.18
2019-02-02T22:05:48.269Z,97711.89
2019-02-02T22:09:04.604Z,97707.06
2019-02-02T22:12:20.810Z,97713.41
2019-02-02T22:15:36.091Z,97711.36
2019-02-02T22:18:51.381Z,97720.61
2019-02-02T22:22:06.490Z,97713.79
2019-02-02T22:25:22.869Z,97718.22
2019-02-02T22:28:38.038Z,97716.41
2019-02-02T22:31:54.144Z,97717.91
2019-02-02T22:35:09.513Z,97723.14
2019-02-02T22:38:24.653Z,97727.59
2019-02-02T22:41:39.789Z,97728.84
2019-02-02T22:44:55.778Z,97730.59
2019-02-02T22:48:11.217Z,97737.13
2019-02-02T22:51:26.415Z,97741.68
2019-02-02T22:54:42.407Z,97742.80
2019-02-02T22:57:58.021Z,97758.25
2019-02-02T23:01:22.633Z,97761.78
2019-02-02T23:05:02.124Z,97770.17
2019-02-02T23:08:52.080Z,97770.91
2019-02-02T23:12:35.043Z,97780.17
2019-02-02T23:16:20.875Z,97787.75
2019-02-02T23:19:36.239Z,97799.88
2019-02-02T23:22:51.697Z,97803.22
2019-02-02T23:26:07.015Z,97826.22
2019-02-02T23:29:22.283Z,97826.58
2019-02-02T23:32:37.648Z,97826.05
2019-02-02T23:35:53.190Z,97833.47
2019-02-02T23:39:08.305Z,97831.55
2019-02-02T23:42:23.920Z,97839.62
2019-02-02T23:45:39.120Z,97842.25
2019-02-02T23:48:54.367Z,97845.73
2019-02-02T23:52:09.751Z,97844.22
2019-02-02T23:55:24.878Z,97849.67
2019-02-02T23:58:40.114Z,97854.74
